Terminal Aerodrome Forecast
Issued by NWS New Orleans/Baton Rouge, LA

Home | Current Version | Previous Version | Text Only | Print | Product List | Glossary On
Versions: 1 2 3 4 5 6 7 8 9 10 11 12 13 14 15 16 17 18 19 20 21 22 23
000
FTUS44 KLIX 282300
TAFNEW
TAF
KNEW 282329Z 2900/2924 12007KT P6SM SKC
     FM291400 17008KT P6SM SCT250
     FM291700 18010KT P6SM SCT030
     FM292100 18010KT P6SM SCT250=

USA.gov is the U.S. government's official web portal to all federal, state and local government web resources and services.